AirNav   Air Wisconsin Up To $57,000 Bonus
 
 751 users online  

KAXQ Clarion County Airport
Clarion, Pennsylvania, USA

GOING TO CLARION?


FAA INFORMATION EFFECTIVE 07 OCTOBER 2021

Location

FAA Identifier: AXQ
Lat/Long: 41-13-29.8000N 079-26-31.8000W
41-13.496667N 079-26.530000W
41.2249444,-79.4421667
(estimated)
Elevation: 1457.5 ft. / 444.2 m (surveyed)
Variation: 10W (2005)
From city: 3 miles NW of CLARION, PA
Time zone: UTC -4 (UTC -5 during Standard Time)
Zip code: 16254

Airport Operations

Airport use: Open to the public
Activation date: 04/1974
Control tower: no
ARTCC: CLEVELAND CENTER
FSS: ALTOONA FLIGHT SERVICE STATION
NOTAMs facility: AOO (NOTAM-D service available)
Attendance: 0800-1600
UNATTENDED CHRISTMAS, EASTER & THANKSGIVING.
Wind indicator: lighted
Segmented circle: no
Lights: ACTVT MIRL RY 06/24, REIL RYS 06 & 24 AND PAPI RYS 06 & 24 - CTAF.
Beacon: white-green (lighted land airport)
Operates sunset to sunrise.
Landing fee: yes

Airport Communications

CTAF/UNICOM: 122.8
WX AWOS-3: 118.275 (814-227-2899)
  • APCH/DEP SVC PRVDD BY CLEVELAND ARTCC (ZOB) ON FREQS 126.725/291.65 (DUBOIS RCAG).

Nearby radio navigation aids

VOR radial/distance  VOR name  Freq  Var
FKLr130/(22.6)FRANKLIN VOR109.6006W

Airport Services

Fuel available: 100LL JET-A+
100LL:SINGLE POINT REFUELING AVAILABLE UPON REQUEST.
Parking: hangars and tiedowns
Bottled oxygen: NONE
Bulk oxygen: NONE

Runway Information

Runway 6/24

Dimensions: 5003 x 75 ft. / 1525 x 23 m
Surface: asphalt, in good condition
Weight bearing capacity: 
Single wheel: 15.0
Runway edge lights: medium intensity
RUNWAY 6  RUNWAY 24
Latitude: 41-13.203123N41-13.788593N
Longitude: 079-26.913500W079-26.145995W
Elevation: 1433.1 ft.1457.4 ft.
Traffic pattern: leftleft
Runway heading: 055 magnetic, 045 true235 magnetic, 225 true
Markings: nonprecision, in good conditionnonprecision, in good condition
Visual slope indicator: 2-light PAPI on left (3.00 degrees glide path)2-light PAPI on left (3.00 degrees glide path)
Runway end identifier lights: yesyes
Touchdown point: yes, no lightsyes, no lights
Obstructions: 12 ft. trees, 493 ft. from runway, 255 ft. left of centerline, 24:1 slope to clear37 ft. trees, 851 ft. from runway, 329 ft. left of centerline, 17:1 slope to clear

Airport Ownership and Management from official FAA records

Ownership: Publicly-owned
Owner: CLARION COUNTY ARPT AUTH
395 AIRPORT RD
SHIPPENVILLE, PA 16254
Phone 814-226-9993
Manager: RUSSELL STEWART
395 AIRPORT ROAD
SHIPPENVILLE, PA 16254
Phone (814) 226-9993
AFT HRS CALL (814) 316-5746.

Airport Operational Statistics

Aircraft based on the field: 14
Single engine airplanes: 12
Helicopters: 2
    
Aircraft operations: avg 53/week *
53% local general aviation
46% transient general aviation
1% military
* for 12-month period ending 02 September 2020

Additional Remarks

FOR CD CTC CLEVELAND ARTCC AT 440-774-0234/0442.

Instrument Procedures

NOTE: All procedures below are presented as PDF files. If you need a reader for these files, you should download the free Adobe Reader.

NOT FOR NAVIGATION. Please procure official charts for flight.
FAA instrument procedures published for use from 07 October 2021 at 0901Z to 04 November 2021 at 0900z.

 
IAPs - Instrument Approach Procedures
RNAV (GPS) RWY 06   download (233KB)
RNAV (GPS) RWY 24   download (195KB)
NOTE: Special Take-Off Minimums/Departure Procedures apply   download (149KB)

Other nearby airports with instrument procedures:

KFKL - Venango Regional Airport (21 nm NW)
KDUJ - Dubois Regional Airport (25 nm E)
6G1 - Titusville Airport (27 nm NW)
N35 - Punxsutawney Municipal Airport (28 nm SE)
6P7 - McVille Airport (30 nm S)
 
Loc | Ops | Rwys | IFR | FBO | Links
Com | Nav | Svcs | Stats | Notes
Area around KAXQ (Clarion County Airport)
 
Road maps at: MapQuest Bing Google
 
Aerial photo
WARNING: Photo may not be current or correct
Aerial photo of KAXQ (Clarion County Airport)
Photo by William Pixley
Photo taken 23-Aug-2016
looking east.

Do you have a better or more recent aerial photo of Clarion County Airport that you would like to share? If so, please send us your photo.

 
Sectional chart

 
Airport diagram
CAUTION: Diagram may not be current
Diagram of KAXQ (Clarion County Airport)
 
Airport distance calculator
Flying to Clarion County Airport? Find the distance to fly.

From to KAXQ

Sunrise and sunset
Times for 21-Oct-2021
 Local
(UTC-4)
 Zulu
(UTC)
Morning civil twilight07:0911:09
Sunrise07:3711:37
Sunset18:2822:28
Evening civil twilight18:5622:56

Current date and time
Zulu (UTC)  21-Oct-2021 05:04:18
Local (UTC-4)  21-Oct-2021 01:04:18
 
METAR
KFKL 
21nm NW 
210456Z AUTO 21008KT 10SM CLR 13/09 A3006 RMK AO2 SLP178 T01330089 402000083
KDUJ 
25nm E 
210453Z AUTO 24006KT 10SM CLR 12/07 A3007 RMK AO2 SLP177 T01220072 401940078
KBTP 
36nm SW 
210456Z AUTO 19005KT 10SM FEW120 13/08 A3008 RMK AO2 SLP186 T01280083 402060067
KIDI 
40nm SE 
210455Z AUTO 00000KT 10SM CLR 09/08 A3012 RMK A01
KPJC 
41nm SW 
210455Z AUTO 00000KT 1 1/4SM BR VV007 07/07 A3006 RMK AO2
TAF
KFKL 
21nm NW 
201720Z 2018/2118 25009G18KT P6SM SKC FM210000 20005KT P6SM SKC FM211400 19009G17KT P6SM BKN060 FM211600 20010G18KT P6SM VCSH BKN035
KDUJ 
25nm E 
201720Z 2018/2118 25012G20KT P6SM SCT090 FM202300 25006KT P6SM SKC FM211400 21008G16KT P6SM BKN120 FM211600 21010G17KT P6SM BKN045
NOTAMs
Click for the latest NOTAMs
NOTAMs are issued by the DoD/FAA and will open in a separate window not controlled by AirNav.

 

 
 

FBO, Fuel Providers, and Aircraft Ground Support

  
 Business Name 
 
 Contact 
 
 Services / Description 
 
Fuel Prices
 
Comments
  
 Clarion County Airport
814-226-9993
[web site]
[email]
Airport management, Aviation fuel, Aircraft ground handling, Aircraft parking (ramp or tiedown), Hangars, Hangar leasing / sales, Passenger terminal and lounge, ...

More info about Clarion County Airport
EPIC
Jet A
AS $4.00 
 Updated 20-Oct-2021
 
   write
AS=Assisted/Self Service
Update Fuel Prices
 

Would you like to see your business listed on this page?

 If your business provides an interesting product or service to pilots, flight crews, aircraft, or users of the Clarion County Airport, you should consider listing it here.  To start the listing process, click on the button below
 
Add a business
 

Other Pages about Clarion County Airport

www.clarionairport.com
users.penn.com/~airport
 
Update a link
 
Copyright © AirNav, LLC. All rights reserved. Privacy Policy  Contact